sensor_id;sensor_type;location;lat;lon;timestamp;P1;durP1;ratioP1;P2;durP2;ratioP2
66189;SDS011;52992;52.084;5.412;2024-03-08T00:00:10;36.40;;;16.97;;
66189;SDS011;52992;52.084;5.412;2024-03-08T00:02:41;33.27;;;17.33;;
66189;SDS011;52992;52.084;5.412;2024-03-08T00:05:08;32.43;;;17.33;;
66189;SDS011;52992;52.084;5.412;2024-03-08T00:07:36;36.03;;;17.37;;
66189;SDS011;52992;52.084;5.412;2024-03-08T00:10:07;34.90;;;18.20;;
66189;SDS011;52992;52.084;5.412;2024-03-08T00:12:39;32.40;;;17.17;;
66189;SDS011;52992;52.084;5.412;2024-03-08T00:15:16;39.43;;;17.53;;
66189;SDS011;52992;52.084;5.412;2024-03-08T00:17:45;36.23;;;16.90;;
66189;SDS011;52992;52.084;5.412;2024-03-08T00:20:13;34.30;;;17.60;;
66189;SDS011;52992;52.084;5.412;2024-03-08T00:22:47;31.73;;;16.60;;
66189;SDS011;52992;52.084;5.412;2024-03-08T00:25:14;30.83;;;15.87;;
66189;SDS011;52992;52.084;5.412;2024-03-08T00:27:41;40.33;;;18.83;;
66189;SDS011;52992;52.084;5.412;2024-03-08T00:30:08;34.13;;;16.83;;
66189;SDS011;52992;52.084;5.412;2024-03-08T00:32:37;36.03;;;18.20;;
66189;SDS011;52992;52.084;5.412;2024-03-08T00:35:04;40.03;;;19.07;;
66189;SDS011;52992;52.084;5.412;2024-03-08T00:37:34;37.37;;;17.00;;
66189;SDS011;52992;52.084;5.412;2024-03-08T00:40:01;33.83;;;16.67;;
66189;SDS011;52992;52.084;5.412;2024-03-08T00:42:28;37.47;;;18.37;;
66189;SDS011;52992;52.084;5.412;2024-03-08T00:44:55;39.10;;;17.30;;
66189;SDS011;52992;52.084;5.412;2024-03-08T00:47:24;37.73;;;17.73;;
66189;SDS011;52992;52.084;5.412;2024-03-08T00:49:51;34.73;;;15.97;;
66189;SDS011;52992;52.084;5.412;2024-03-08T00:52:19;40.73;;;18.23;;
66189;SDS011;52992;52.084;5.412;2024-03-08T00:54:46;39.50;;;17.43;;
66189;SDS011;52992;52.084;5.412;2024-03-08T00:57:13;36.13;;;17.80;;
66189;SDS011;52992;52.084;5.412;2024-03-08T00:59:40;34.63;;;17.37;;
66189;SDS011;52992;52.084;5.412;2024-03-08T01:02:07;36.70;;;18.30;;
66189;SDS011;52992;52.084;5.412;2024-03-08T01:04:37;35.97;;;16.63;;
66189;SDS011;52992;52.084;5.412;2024-03-08T01:07:04;36.03;;;16.90;;
66189;SDS011;52992;52.084;5.412;2024-03-08T01:09:32;37.00;;;18.43;;
66189;SDS011;52992;52.084;5.412;2024-03-08T01:11:58;34.83;;;17.23;;
66189;SDS011;52992;52.084;5.412;2024-03-08T01:14:26;37.73;;;18.10;;
66189;SDS011;52992;52.084;5.412;2024-03-08T01:16:53;36.23;;;17.67;;
66189;SDS011;52992;52.084;5.412;2024-03-08T01:19:21;34.77;;;16.07;;
66189;SDS011;52992;52.084;5.412;2024-03-08T01:21:48;36.47;;;17.57;;
66189;SDS011;52992;52.084;5.412;2024-03-08T01:24:15;34.03;;;17.30;;
66189;SDS011;52992;52.084;5.412;2024-03-08T01:26:42;37.00;;;18.53;;
66189;SDS011;52992;52.084;5.412;2024-03-08T01:29:09;31.67;;;16.60;;
66189;SDS011;52992;52.084;5.412;2024-03-08T01:31:36;35.33;;;17.77;;
66189;SDS011;52992;52.084;5.412;2024-03-08T01:34:03;37.60;;;18.53;;
66189;SDS011;52992;52.084;5.412;2024-03-08T01:36:30;38.70;;;16.63;;
66189;SDS011;52992;52.084;5.412;2024-03-08T01:38:57;37.30;;;18.07;;
66189;SDS011;52992;52.084;5.412;2024-03-08T01:41:24;33.47;;;18.20;;
66189;SDS011;52992;52.084;5.412;2024-03-08T01:43:51;33.33;;;17.20;;
66189;SDS011;52992;52.084;5.412;2024-03-08T01:46:19;39.13;;;18.40;;
66189;SDS011;52992;52.084;5.412;2024-03-08T01:48:48;35.30;;;17.80;;
66189;SDS011;52992;52.084;5.412;2024-03-08T01:51:18;37.87;;;16.97;;
66189;SDS011;52992;52.084;5.412;2024-03-08T01:53:46;37.50;;;18.57;;
66189;SDS011;52992;52.084;5.412;2024-03-08T01:56:14;39.00;;;17.70;;
66189;SDS011;52992;52.084;5.412;2024-03-08T01:58:42;36.80;;;17.97;;
66189;SDS011;52992;52.084;5.412;2024-03-08T02:01:12;34.73;;;18.27;;
66189;SDS011;52992;52.084;5.412;2024-03-08T02:03:43;33.93;;;17.53;;
66189;SDS011;52992;52.084;5.412;2024-03-08T02:06:11;36.37;;;17.47;;
66189;SDS011;52992;52.084;5.412;2024-03-08T02:08:44;38.03;;;18.87;;
66189;SDS011;52992;52.084;5.412;2024-03-08T02:11:13;35.53;;;17.67;;
66189;SDS011;52992;52.084;5.412;2024-03-08T02:13:41;38.73;;;18.90;;
66189;SDS011;52992;52.084;5.412;2024-03-08T02:16:08;40.50;;;19.17;;
66189;SDS011;52992;52.084;5.412;2024-03-08T02:18:36;39.10;;;19.00;;
66189;SDS011;52992;52.084;5.412;2024-03-08T02:21:06;37.53;;;18.53;;
66189;SDS011;52992;52.084;5.412;2024-03-08T02:23:35;32.10;;;17.70;;
66189;SDS011;52992;52.084;5.412;2024-03-08T02:26:03;37.67;;;18.30;;
66189;SDS011;52992;52.084;5.412;2024-03-08T02:28:31;37.60;;;19.20;;
66189;SDS011;52992;52.084;5.412;2024-03-08T02:30:58;39.00;;;18.33;;
66189;SDS011;52992;52.084;5.412;2024-03-08T02:33:26;34.80;;;16.90;;
66189;SDS011;52992;52.084;5.412;2024-03-08T02:35:54;35.33;;;18.40;;
66189;SDS011;52992;52.084;5.412;2024-03-08T02:38:24;38.73;;;18.63;;
66189;SDS011;52992;52.084;5.412;2024-03-08T02:40:52;32.70;;;18.13;;
66189;SDS011;52992;52.084;5.412;2024-03-08T02:43:21;33.97;;;17.73;;
66189;SDS011;52992;52.084;5.412;2024-03-08T02:45:52;35.63;;;18.33;;
66189;SDS011;52992;52.084;5.412;2024-03-08T02:48:21;38.90;;;17.43;;
66189;SDS011;52992;52.084;5.412;2024-03-08T02:50:49;39.60;;;18.27;;
66189;SDS011;52992;52.084;5.412;2024-03-08T02:53:18;33.27;;;17.33;;
66189;SDS011;52992;52.084;5.412;2024-03-08T02:55:45;37.57;;;19.07;;
66189;SDS011;52992;52.084;5.412;2024-03-08T02:58:13;36.87;;;18.00;;
66189;SDS011;52992;52.084;5.412;2024-03-08T03:00:41;39.13;;;17.57;;
66189;SDS011;52992;52.084;5.412;2024-03-08T03:03:11;37.47;;;19.03;;
66189;SDS011;52992;52.084;5.412;2024-03-08T03:05:38;38.37;;;18.10;;
66189;SDS011;52992;52.084;5.412;2024-03-08T03:08:14;35.43;;;18.83;;
66189;SDS011;52992;52.084;5.412;2024-03-08T03:10:43;38.97;;;19.33;;
66189;SDS011;52992;52.084;5.412;2024-03-08T03:13:11;34.33;;;17.47;;
66189;SDS011;52992;52.084;5.412;2024-03-08T03:15:38;33.47;;;18.43;;
66189;SDS011;52992;52.084;5.412;2024-03-08T03:18:08;38.20;;;18.67;;
66189;SDS011;52992;52.084;5.412;2024-03-08T03:20:35;34.30;;;16.83;;
66189;SDS011;52992;52.084;5.412;2024-03-08T03:23:08;32.87;;;17.93;;
66189;SDS011;52992;52.084;5.412;2024-03-08T03:25:35;39.40;;;19.00;;
66189;SDS011;52992;52.084;5.412;2024-03-08T03:28:05;41.00;;;19.27;;
66189;SDS011;52992;52.084;5.412;2024-03-08T03:30:34;32.00;;;17.03;;
66189;SDS011;52992;52.084;5.412;2024-03-08T03:33:01;36.07;;;18.03;;
66189;SDS011;52992;52.084;5.412;2024-03-08T03:35:34;34.67;;;18.77;;
66189;SDS011;52992;52.084;5.412;2024-03-08T03:38:03;37.53;;;19.47;;
66189;SDS011;52992;52.084;5.412;2024-03-08T03:40:39;35.17;;;18.50;;
66189;SDS011;52992;52.084;5.412;2024-03-08T03:43:07;34.67;;;18.70;;
66189;SDS011;52992;52.084;5.412;2024-03-08T03:45:38;35.20;;;18.17;;
66189;SDS011;52992;52.084;5.412;2024-03-08T03:48:07;39.80;;;20.67;;
66189;SDS011;52992;52.084;5.412;2024-03-08T03:50:38;37.70;;;20.00;;
66189;SDS011;52992;52.084;5.412;2024-03-08T03:53:06;39.30;;;19.03;;
66189;SDS011;52992;52.084;5.412;2024-03-08T03:55:36;37.83;;;20.30;;
66189;SDS011;52992;52.084;5.412;2024-03-08T03:58:06;38.77;;;19.87;;
66189;SDS011;52992;52.084;5.412;2024-03-08T04:00:33;39.20;;;20.10;;
66189;SDS011;52992;52.084;5.412;2024-03-08T04:03:00;36.97;;;19.17;;
66189;SDS011;52992;52.084;5.412;2024-03-08T04:05:27;37.67;;;19.43;;
66189;SDS011;52992;52.084;5.412;2024-03-08T04:07:55;36.10;;;20.47;;
66189;SDS011;52992;52.084;5.412;2024-03-08T04:10:24;36.80;;;19.27;;
66189;SDS011;52992;52.084;5.412;2024-03-08T04:12:51;39.30;;;19.47;;
66189;SDS011;52992;52.084;5.412;2024-03-08T04:15:19;40.47;;;20.13;;
66189;SDS011;52992;52.084;5.412;2024-03-08T04:17:47;37.30;;;18.37;;
66189;SDS011;52992;52.084;5.412;2024-03-08T04:20:14;31.07;;;18.20;;
66189;SDS011;52992;52.084;5.412;2024-03-08T04:22:41;36.83;;;19.23;;
66189;SDS011;52992;52.084;5.412;2024-03-08T04:25:11;36.70;;;19.37;;
66189;SDS011;52992;52.084;5.412;2024-03-08T04:27:38;34.03;;;17.83;;
66189;SDS011;52992;52.084;5.412;2024-03-08T04:30:05;39.30;;;19.63;;
66189;SDS011;52992;52.084;5.412;2024-03-08T04:32:36;36.33;;;19.57;;
66189;SDS011;52992;52.084;5.412;2024-03-08T04:35:04;39.50;;;20.17;;
66189;SDS011;52992;52.084;5.412;2024-03-08T04:37:31;33.80;;;17.30;;
66189;SDS011;52992;52.084;5.412;2024-03-08T04:39:58;35.10;;;18.63;;
66189;SDS011;52992;52.084;5.412;2024-03-08T04:42:26;37.77;;;19.97;;
66189;SDS011;52992;52.084;5.412;2024-03-08T04:44:56;35.47;;;19.37;;
66189;SDS011;52992;52.084;5.412;2024-03-08T04:47:23;35.30;;;18.87;;
66189;SDS011;52992;52.084;5.412;2024-03-08T04:49:51;35.33;;;18.80;;
66189;SDS011;52992;52.084;5.412;2024-03-08T04:52:19;33.87;;;18.67;;
66189;SDS011;52992;52.084;5.412;2024-03-08T04:54:46;40.90;;;19.73;;
66189;SDS011;52992;52.084;5.412;2024-03-08T04:57:13;43.27;;;19.83;;
66189;SDS011;52992;52.084;5.412;2024-03-08T04:59:41;39.20;;;20.37;;
66189;SDS011;52992;52.084;5.412;2024-03-08T05:02:08;40.23;;;19.30;;
66189;SDS011;52992;52.084;5.412;2024-03-08T05:04:34;39.23;;;19.33;;
66189;SDS011;52992;52.084;5.412;2024-03-08T05:07:02;39.63;;;19.20;;
66189;SDS011;52992;52.084;5.412;2024-03-08T05:09:30;39.00;;;19.40;;
66189;SDS011;52992;52.084;5.412;2024-03-08T05:11:58;37.43;;;20.63;;
66189;SDS011;52992;52.084;5.412;2024-03-08T05:14:25;36.30;;;19.10;;
66189;SDS011;52992;52.084;5.412;2024-03-08T05:16:53;36.23;;;18.93;;
66189;SDS011;52992;52.084;5.412;2024-03-08T05:19:20;37.83;;;18.93;;
66189;SDS011;52992;52.084;5.412;2024-03-08T05:21:48;33.97;;;18.40;;
66189;SDS011;52992;52.084;5.412;2024-03-08T05:24:16;36.83;;;19.83;;
66189;SDS011;52992;52.084;5.412;2024-03-08T05:26:45;37.63;;;20.20;;
66189;SDS011;52992;52.084;5.412;2024-03-08T05:29:13;34.33;;;18.47;;
66189;SDS011;52992;52.084;5.412;2024-03-08T05:31:50;40.20;;;19.37;;
66189;SDS011;52992;52.084;5.412;2024-03-08T05:34:21;42.60;;;20.40;;
66189;SDS011;52992;52.084;5.412;2024-03-08T05:36:49;37.10;;;18.67;;
66189;SDS011;52992;52.084;5.412;2024-03-08T05:39:17;38.67;;;19.43;;
66189;SDS011;52992;52.084;5.412;2024-03-08T05:41:45;35.40;;;18.70;;
66189;SDS011;52992;52.084;5.412;2024-03-08T05:44:12;38.37;;;20.13;;
66189;SDS011;52992;52.084;5.412;2024-03-08T05:46:39;34.87;;;19.10;;
66189;SDS011;52992;52.084;5.412;2024-03-08T05:49:09;43.20;;;21.37;;
66189;SDS011;52992;52.084;5.412;2024-03-08T05:51:38;37.40;;;19.70;;
66189;SDS011;52992;52.084;5.412;2024-03-08T05:54:07;37.53;;;20.33;;
66189;SDS011;52992;52.084;5.412;2024-03-08T05:56:41;34.07;;;18.27;;
66189;SDS011;52992;52.084;5.412;2024-03-08T05:59:10;36.93;;;19.40;;
66189;SDS011;52992;52.084;5.412;2024-03-08T06:01:38;35.37;;;20.00;;
66189;SDS011;52992;52.084;5.412;2024-03-08T06:04:08;36.93;;;20.03;;
66189;SDS011;52992;52.084;5.412;2024-03-08T06:06:36;38.60;;;19.87;;
66189;SDS011;52992;52.084;5.412;2024-03-08T06:09:04;39.43;;;19.30;;
66189;SDS011;52992;52.084;5.412;2024-03-08T06:11:39;37.00;;;20.70;;
66189;SDS011;52992;52.084;5.412;2024-03-08T06:14:06;37.03;;;19.27;;
66189;SDS011;52992;52.084;5.412;2024-03-08T06:16:33;40.53;;;19.67;;
66189;SDS011;52992;52.084;5.412;2024-03-08T06:19:02;41.37;;;20.37;;
66189;SDS011;52992;52.084;5.412;2024-03-08T06:21:29;39.97;;;20.43;;
66189;SDS011;52992;52.084;5.412;2024-03-08T06:23:57;35.53;;;19.53;;
66189;SDS011;52992;52.084;5.412;2024-03-08T06:26:25;43.73;;;21.30;;
66189;SDS011;52992;52.084;5.412;2024-03-08T06:28:57;40.57;;;20.43;;
66189;SDS011;52992;52.084;5.412;2024-03-08T06:31:27;38.77;;;20.33;;
66189;SDS011;52992;52.084;5.412;2024-03-08T06:33:54;42.43;;;20.83;;
66189;SDS011;52992;52.084;5.412;2024-03-08T06:36:22;40.60;;;20.47;;
66189;SDS011;52992;52.084;5.412;2024-03-08T06:38:50;41.00;;;20.67;;
66189;SDS011;52992;52.084;5.412;2024-03-08T06:41:17;37.07;;;20.00;;
66189;SDS011;52992;52.084;5.412;2024-03-08T06:43:45;43.43;;;20.47;;
66189;SDS011;52992;52.084;5.412;2024-03-08T06:46:16;38.60;;;21.07;;
66189;SDS011;52992;52.084;5.412;2024-03-08T06:48:43;38.63;;;20.63;;
66189;SDS011;52992;52.084;5.412;2024-03-08T06:51:12;41.07;;;21.03;;
66189;SDS011;52992;52.084;5.412;2024-03-08T06:53:41;42.33;;;20.43;;
66189;SDS011;52992;52.084;5.412;2024-03-08T06:56:08;39.40;;;20.33;;
66189;SDS011;52992;52.084;5.412;2024-03-08T06:58:35;34.27;;;19.13;;
66189;SDS011;52992;52.084;5.412;2024-03-08T07:01:02;38.20;;;20.33;;
66189;SDS011;52992;52.084;5.412;2024-03-08T07:03:34;45.17;;;21.53;;
66189;SDS011;52992;52.084;5.412;2024-03-08T07:06:01;43.47;;;21.80;;
66189;SDS011;52992;52.084;5.412;2024-03-08T07:08:30;41.33;;;19.90;;
66189;SDS011;52992;52.084;5.412;2024-03-08T07:10:57;41.90;;;20.80;;
66189;SDS011;52992;52.084;5.412;2024-03-08T07:13:25;39.87;;;21.53;;
66189;SDS011;52992;52.084;5.412;2024-03-08T07:15:55;41.47;;;21.27;;
66189;SDS011;52992;52.084;5.412;2024-03-08T07:18:21;36.17;;;19.60;;
66189;SDS011;52992;52.084;5.412;2024-03-08T07:20:49;40.57;;;19.93;;
66189;SDS011;52992;52.084;5.412;2024-03-08T07:23:16;37.27;;;20.40;;
66189;SDS011;52992;52.084;5.412;2024-03-08T07:26:03;34.83;;;19.77;;
66189;SDS011;52992;52.084;5.412;2024-03-08T07:28:30;36.53;;;19.07;;
66189;SDS011;52992;52.084;5.412;2024-03-08T07:30:58;34.77;;;19.77;;
66189;SDS011;52992;52.084;5.412;2024-03-08T07:33:43;35.13;;;19.50;;
66189;SDS011;52992;52.084;5.412;2024-03-08T07:36:11;36.83;;;19.77;;
66189;SDS011;52992;52.084;5.412;2024-03-08T07:38:38;32.57;;;18.60;;
66189;SDS011;52992;52.084;5.412;2024-03-08T07:41:05;34.97;;;19.67;;
66189;SDS011;52992;52.084;5.412;2024-03-08T07:43:32;34.13;;;18.90;;
66189;SDS011;52992;52.084;5.412;2024-03-08T07:45:59;34.33;;;20.70;;
66189;SDS011;52992;52.084;5.412;2024-03-08T07:48:26;33.33;;;19.57;;
66189;SDS011;52992;52.084;5.412;2024-03-08T07:50:53;30.67;;;19.37;;
66189;SDS011;52992;52.084;5.412;2024-03-08T07:53:22;34.93;;;18.50;;
66189;SDS011;52992;52.084;5.412;2024-03-08T07:55:50;35.90;;;19.83;;
66189;SDS011;52992;52.084;5.412;2024-03-08T07:58:17;31.40;;;19.53;;
66189;SDS011;52992;52.084;5.412;2024-03-08T08:00:45;35.43;;;19.47;;
66189;SDS011;52992;52.084;5.412;2024-03-08T08:03:12;35.23;;;19.60;;
66189;SDS011;52992;52.084;5.412;2024-03-08T08:05:39;35.13;;;19.20;;
66189;SDS011;52992;52.084;5.412;2024-03-08T08:08:09;34.77;;;19.93;;
66189;SDS011;52992;52.084;5.412;2024-03-08T08:10:38;31.77;;;18.07;;
66189;SDS011;52992;52.084;5.412;2024-03-08T08:13:05;32.20;;;18.70;;
66189;SDS011;52992;52.084;5.412;2024-03-08T08:15:32;32.37;;;18.90;;
66189;SDS011;52992;52.084;5.412;2024-03-08T08:18:02;31.27;;;19.40;;
66189;SDS011;52992;52.084;5.412;2024-03-08T08:20:32;32.17;;;19.13;;
66189;SDS011;52992;52.084;5.412;2024-03-08T08:23:00;32.63;;;18.90;;
66189;SDS011;52992;52.084;5.412;2024-03-08T08:25:26;31.03;;;17.90;;
66189;SDS011;52992;52.084;5.412;2024-03-08T08:27:53;33.60;;;19.03;;
66189;SDS011;52992;52.084;5.412;2024-03-08T08:30:20;33.20;;;19.20;;
66189;SDS011;52992;52.084;5.412;2024-03-08T08:32:48;30.67;;;18.17;;
66189;SDS011;52992;52.084;5.412;2024-03-08T08:35:16;34.70;;;18.83;;
66189;SDS011;52992;52.084;5.412;2024-03-08T08:37:45;33.00;;;18.90;;
66189;SDS011;52992;52.084;5.412;2024-03-08T08:40:12;32.67;;;18.87;;
66189;SDS011;52992;52.084;5.412;2024-03-08T08:42:44;38.80;;;20.27;;
66189;SDS011;52992;52.084;5.412;2024-03-08T08:45:15;31.73;;;19.17;;
66189;SDS011;52992;52.084;5.412;2024-03-08T08:47:48;33.17;;;18.97;;
66189;SDS011;52992;52.084;5.412;2024-03-08T08:50:15;30.30;;;17.63;;
66189;SDS011;52992;52.084;5.412;2024-03-08T08:52:49;34.97;;;19.50;;
66189;SDS011;52992;52.084;5.412;2024-03-08T08:55:16;36.87;;;18.93;;
66189;SDS011;52992;52.084;5.412;2024-03-08T08:57:47;31.00;;;18.37;;
66189;SDS011;52992;52.084;5.412;2024-03-08T09:00:14;34.63;;;19.07;;
66189;SDS011;52992;52.084;5.412;2024-03-08T09:02:42;35.87;;;19.37;;
66189;SDS011;52992;52.084;5.412;2024-03-08T09:05:09;34.70;;;19.60;;
66189;SDS011;52992;52.084;5.412;2024-03-08T09:07:38;36.83;;;19.97;;
66189;SDS011;52992;52.084;5.412;2024-03-08T09:10:05;34.50;;;20.13;;
66189;SDS011;52992;52.084;5.412;2024-03-08T09:12:43;33.73;;;18.77;;
66189;SDS011;52992;52.084;5.412;2024-03-08T09:15:10;34.67;;;19.07;;
66189;SDS011;52992;52.084;5.412;2024-03-08T09:17:38;38.57;;;20.13;;
66189;SDS011;52992;52.084;5.412;2024-03-08T09:20:10;34.20;;;19.23;;
66189;SDS011;52992;52.084;5.412;2024-03-08T09:22:44;33.10;;;18.50;;
66189;SDS011;52992;52.084;5.412;2024-03-08T09:25:12;33.63;;;19.13;;
66189;SDS011;52992;52.084;5.412;2024-03-08T09:27:39;36.23;;;19.67;;
66189;SDS011;52992;52.084;5.412;2024-03-08T09:30:07;34.10;;;19.00;;
66189;SDS011;52992;52.084;5.412;2024-03-08T09:32:34;32.20;;;18.03;;
66189;SDS011;52992;52.084;5.412;2024-03-08T09:35:03;31.63;;;19.40;;
66189;SDS011;52992;52.084;5.412;2024-03-08T09:37:33;33.30;;;18.60;;
66189;SDS011;52992;52.084;5.412;2024-03-08T09:40:01;36.83;;;19.17;;
66189;SDS011;52992;52.084;5.412;2024-03-08T09:42:31;29.50;;;17.63;;
66189;SDS011;52992;52.084;5.412;2024-03-08T09:44:58;32.17;;;18.37;;
66189;SDS011;52992;52.084;5.412;2024-03-08T09:47:25;31.30;;;17.70;;
66189;SDS011;52992;52.084;5.412;2024-03-08T09:50:00;33.10;;;18.43;;
66189;SDS011;52992;52.084;5.412;2024-03-08T09:52:28;30.37;;;18.70;;
66189;SDS011;52992;52.084;5.412;2024-03-08T09:54:57;33.27;;;19.23;;
66189;SDS011;52992;52.084;5.412;2024-03-08T09:57:25;30.93;;;18.77;;
66189;SDS011;52992;52.084;5.412;2024-03-08T09:59:52;33.83;;;18.53;;
66189;SDS011;52992;52.084;5.412;2024-03-08T10:02:19;29.33;;;17.83;;
66189;SDS011;52992;52.084;5.412;2024-03-08T10:04:47;28.93;;;17.50;;
66189;SDS011;52992;52.084;5.412;2024-03-08T10:07:15;27.87;;;17.80;;
66189;SDS011;52992;52.084;5.412;2024-03-08T10:09:42;30.33;;;18.27;;
66189;SDS011;52992;52.084;5.412;2024-03-08T10:12:18;27.77;;;16.87;;
66189;SDS011;52992;52.084;5.412;2024-03-08T10:14:46;26.40;;;16.67;;
66189;SDS011;52992;52.084;5.412;2024-03-08T10:17:13;27.80;;;17.10;;
66189;SDS011;52992;52.084;5.412;2024-03-08T10:19:48;25.83;;;16.57;;
66189;SDS011;52992;52.084;5.412;2024-03-08T10:22:17;25.93;;;16.47;;
66189;SDS011;52992;52.084;5.412;2024-03-08T10:24:46;23.30;;;15.07;;
66189;SDS011;52992;52.084;5.412;2024-03-08T10:27:13;25.17;;;16.00;;
66189;SDS011;52992;52.084;5.412;2024-03-08T10:29:42;24.27;;;15.93;;
66189;SDS011;52992;52.084;5.412;2024-03-08T10:32:10;29.93;;;17.37;;
66189;SDS011;52992;52.084;5.412;2024-03-08T10:34:38;27.57;;;16.27;;
66189;SDS011;52992;52.084;5.412;2024-03-08T10:37:05;26.60;;;16.83;;
66189;SDS011;52992;52.084;5.412;2024-03-08T10:39:37;23.67;;;15.97;;
66189;SDS011;52992;52.084;5.412;2024-03-08T10:42:12;25.23;;;16.07;;
66189;SDS011;52992;52.084;5.412;2024-03-08T10:44:58;26.60;;;16.57;;
66189;SDS011;52992;52.084;5.412;2024-03-08T10:47:40;26.27;;;15.67;;
66189;SDS011;52992;52.084;5.412;2024-03-08T10:50:13;28.13;;;16.80;;
66189;SDS011;52992;52.084;5.412;2024-03-08T10:52:51;27.50;;;17.57;;
66189;SDS011;52992;52.084;5.412;2024-03-08T10:55:18;28.27;;;17.23;;
66189;SDS011;52992;52.084;5.412;2024-03-08T10:57:49;26.80;;;17.00;;
66189;SDS011;52992;52.084;5.412;2024-03-08T11:00:16;26.63;;;16.43;;
66189;SDS011;52992;52.084;5.412;2024-03-08T11:02:43;27.43;;;15.97;;
66189;SDS011;52992;52.084;5.412;2024-03-08T11:05:10;24.33;;;15.97;;
66189;SDS011;52992;52.084;5.412;2024-03-08T11:08:02;27.03;;;16.30;;
66189;SDS011;52992;52.084;5.412;2024-03-08T11:10:30;22.20;;;14.97;;
66189;SDS011;52992;52.084;5.412;2024-03-08T11:12:59;22.53;;;15.00;;
66189;SDS011;52992;52.084;5.412;2024-03-08T11:15:26;24.63;;;15.30;;
66189;SDS011;52992;52.084;5.412;2024-03-08T11:17:57;21.43;;;14.33;;
66189;SDS011;52992;52.084;5.412;2024-03-08T11:20:26;23.60;;;15.17;;
66189;SDS011;52992;52.084;5.412;2024-03-08T11:22:55;23.93;;;15.13;;
66189;SDS011;52992;52.084;5.412;2024-03-08T11:25:40;22.57;;;14.63;;
66189;SDS011;52992;52.084;5.412;2024-03-08T11:30:44;20.63;;;13.90;;
66189;SDS011;52992;52.084;5.412;2024-03-08T11:33:28;18.67;;;13.20;;
66189;SDS011;52992;52.084;5.412;2024-03-08T11:36:07;25.53;;;13.70;;
66189;SDS011;52992;52.084;5.412;2024-03-08T11:38:41;19.80;;;13.40;;
66189;SDS011;52992;52.084;5.412;2024-03-08T11:41:16;18.47;;;13.17;;
66189;SDS011;52992;52.084;5.412;2024-03-08T11:43:48;20.20;;;13.53;;
66189;SDS011;52992;52.084;5.412;2024-03-08T11:46:16;21.10;;;13.80;;
66189;SDS011;52992;52.084;5.412;2024-03-08T11:48:46;19.70;;;12.73;;
66189;SDS011;52992;52.084;5.412;2024-03-08T11:51:15;16.77;;;11.40;;
66189;SDS011;52992;52.084;5.412;2024-03-08T11:53:45;17.40;;;13.03;;
66189;SDS011;52992;52.084;5.412;2024-03-08T11:56:14;18.97;;;12.47;;
66189;SDS011;52992;52.084;5.412;2024-03-08T11:58:42;18.77;;;12.90;;
66189;SDS011;52992;52.084;5.412;2024-03-08T12:01:23;16.60;;;11.30;;
66189;SDS011;52992;52.084;5.412;2024-03-08T12:03:54;16.57;;;12.00;;
66189;SDS011;52992;52.084;5.412;2024-03-08T12:06:26;16.07;;;11.47;;
66189;SDS011;52992;52.084;5.412;2024-03-08T12:09:09;17.33;;;11.37;;
66189;SDS011;52992;52.084;5.412;2024-03-08T12:11:39;17.67;;;11.97;;
66189;SDS011;52992;52.084;5.412;2024-03-08T12:14:06;18.17;;;12.77;;
66189;SDS011;52992;52.084;5.412;2024-03-08T12:16:33;16.57;;;12.07;;
66189;SDS011;52992;52.084;5.412;2024-03-08T12:19:02;18.23;;;11.83;;
66189;SDS011;52992;52.084;5.412;2024-03-08T12:21:31;16.73;;;12.30;;
66189;SDS011;52992;52.084;5.412;2024-03-08T12:24:09;16.97;;;12.00;;
66189;SDS011;52992;52.084;5.412;2024-03-08T12:26:39;18.03;;;12.57;;
66189;SDS011;52992;52.084;5.412;2024-03-08T12:29:15;19.10;;;12.70;;
66189;SDS011;52992;52.084;5.412;2024-03-08T12:31:52;19.63;;;13.20;;
66189;SDS011;52992;52.084;5.412;2024-03-08T12:34:31;20.50;;;13.33;;
66189;SDS011;52992;52.084;5.412;2024-03-08T12:36:58;19.77;;;13.73;;
66189;SDS011;52992;52.084;5.412;2024-03-08T12:39:25;20.40;;;12.33;;
66189;SDS011;52992;52.084;5.412;2024-03-08T12:41:54;20.57;;;12.87;;
66189;SDS011;52992;52.084;5.412;2024-03-08T12:44:23;19.53;;;12.47;;
66189;SDS011;52992;52.084;5.412;2024-03-08T12:46:51;18.17;;;12.50;;
66189;SDS011;52992;52.084;5.412;2024-03-08T12:49:20;18.87;;;12.80;;
66189;SDS011;52992;52.084;5.412;2024-03-08T12:51:50;16.97;;;11.63;;
66189;SDS011;52992;52.084;5.412;2024-03-08T12:54:19;19.23;;;12.77;;
66189;SDS011;52992;52.084;5.412;2024-03-08T12:56:50;17.77;;;12.40;;
66189;SDS011;52992;52.084;5.412;2024-03-08T12:59:20;18.13;;;11.67;;
66189;SDS011;52992;52.084;5.412;2024-03-08T13:01:48;21.57;;;12.60;;
66189;SDS011;52992;52.084;5.412;2024-03-08T13:04:17;22.63;;;12.73;;
66189;SDS011;52992;52.084;5.412;2024-03-08T13:06:45;20.60;;;11.77;;
66189;SDS011;52992;52.084;5.412;2024-03-08T13:09:19;20.73;;;13.00;;
66189;SDS011;52992;52.084;5.412;2024-03-08T13:11:46;19.17;;;12.83;;
66189;SDS011;52992;52.084;5.412;2024-03-08T13:14:13;21.43;;;12.83;;
66189;SDS011;52992;52.084;5.412;2024-03-08T13:16:40;20.60;;;13.23;;
66189;SDS011;52992;52.084;5.412;2024-03-08T13:19:07;22.07;;;12.80;;
66189;SDS011;52992;52.084;5.412;2024-03-08T13:21:35;18.87;;;12.80;;
66189;SDS011;52992;52.084;5.412;2024-03-08T13:24:02;20.10;;;13.50;;
66189;SDS011;52992;52.084;5.412;2024-03-08T13:26:29;22.27;;;13.20;;
66189;SDS011;52992;52.084;5.412;2024-03-08T13:28:59;19.23;;;12.67;;
66189;SDS011;52992;52.084;5.412;2024-03-08T13:31:27;21.43;;;13.40;;
66189;SDS011;52992;52.084;5.412;2024-03-08T13:33:54;20.10;;;13.63;;
66189;SDS011;52992;52.084;5.412;2024-03-08T13:36:25;21.60;;;13.77;;
66189;SDS011;52992;52.084;5.412;2024-03-08T13:38:56;18.93;;;12.80;;
66189;SDS011;52992;52.084;5.412;2024-03-08T13:41:25;22.53;;;13.40;;
66189;SDS011;52992;52.084;5.412;2024-03-08T13:43:55;19.13;;;13.13;;
66189;SDS011;52992;52.084;5.412;2024-03-08T13:46:22;24.00;;;12.90;;
66189;SDS011;52992;52.084;5.412;2024-03-08T13:48:51;18.57;;;13.20;;
66189;SDS011;52992;52.084;5.412;2024-03-08T13:51:27;22.13;;;13.93;;
66189;SDS011;52992;52.084;5.412;2024-03-08T13:53:54;21.00;;;13.73;;
66189;SDS011;52992;52.084;5.412;2024-03-08T13:56:21;21.33;;;13.70;;
66189;SDS011;52992;52.084;5.412;2024-03-08T13:58:48;31.23;;;14.47;;
66189;SDS011;52992;52.084;5.412;2024-03-08T14:01:18;23.90;;;13.80;;
66189;SDS011;52992;52.084;5.412;2024-03-08T14:03:47;20.80;;;13.20;;
66189;SDS011;52992;52.084;5.412;2024-03-08T14:06:14;20.70;;;13.23;;
66189;SDS011;52992;52.084;5.412;2024-03-08T14:08:49;19.27;;;12.83;;
66189;SDS011;52992;52.084;5.412;2024-03-08T14:11:16;20.20;;;13.40;;
66189;SDS011;52992;52.084;5.412;2024-03-08T14:13:45;21.40;;;13.50;;
66189;SDS011;52992;52.084;5.412;2024-03-08T14:16:13;19.90;;;13.53;;
66189;SDS011;52992;52.084;5.412;2024-03-08T14:18:40;22.53;;;14.57;;
66189;SDS011;52992;52.084;5.412;2024-03-08T14:21:08;23.63;;;14.80;;
66189;SDS011;52992;52.084;5.412;2024-03-08T14:23:35;21.73;;;14.10;;
66189;SDS011;52992;52.084;5.412;2024-03-08T14:26:05;23.17;;;14.17;;
66189;SDS011;52992;52.084;5.412;2024-03-08T14:28:34;23.73;;;13.67;;
66189;SDS011;52992;52.084;5.412;2024-03-08T14:31:02;21.90;;;14.13;;
66189;SDS011;52992;52.084;5.412;2024-03-08T14:33:33;25.20;;;14.90;;